Time;durP1;ratioP1;P1;durP2;ratioP2;P2;SDS_P1;SDS_P2;PMS_P1;PMS_P2;Temp;Humidity;BMP_temperature;BMP_pressure;BME280_temperature;BME280_humidity;BME280_pressure;Samples;Min_cycle;Max_cycle;Signal;HPM_P1;HPM_P2
2021/12/29 00:00:10;;;;;;;4.30;2.60;;;;;;;5.99;88.04;98941.94;5045473;28;20569;-79
2021/12/29 00:02:36;;;;;;;3.50;2.40;;;;;;;5.95;88.29;98950.19;5035400;28;20206;-79
2021/12/29 00:05:03;;;;;;;4.03;2.57;;;;;;;5.88;87.97;98958.59;5037080;28;20206;-79
2021/12/29 00:07:30;;;;;;;4.37;2.90;;;;;;;5.81;88.11;98967.00;5038535;28;20867;-79
2021/12/29 00:09:59;;;;;;;5.63;2.50;;;;;;;5.74;87.47;98974.50;5056812;28;20209;-79
2021/12/29 00:12:26;;;;;;;5.63;3.27;;;;;;;5.69;87.82;98981.94;5052796;28;20216;-79
2021/12/29 00:14:55;;;;;;;4.47;2.80;;;;;;;5.65;87.70;98975.16;5040652;28;20289;-80
2021/12/29 00:17:22;;;;;;;5.70;3.20;;;;;;;5.63;87.79;98986.78;5036362;28;20236;-79
2021/12/29 00:19:49;;;;;;;7.57;3.90;;;;;;;5.59;88.12;98973.78;5048817;28;20225;-79
2021/12/29 00:22:15;;;;;;;8.97;4.97;;;;;;;5.59;88.05;98981.72;5037452;28;20199;-79
2021/12/29 00:24:42;;;;;;;7.23;4.23;;;;;;;5.58;88.25;98980.03;5049699;28;20201;-78
2021/12/29 00:27:10;;;;;;;7.97;4.13;;;;;;;5.59;88.33;98994.91;5045346;28;20238;-78
2021/12/29 00:29:36;;;;;;;7.10;4.03;;;;;;;5.59;88.34;99002.00;5035554;28;20206;-79
2021/12/29 00:32:05;;;;;;;9.00;4.57;;;;;;;5.60;88.46;99011.59;5036672;28;20818;-79
2021/12/29 00:34:31;;;;;;;8.23;4.30;;;;;;;5.59;88.94;99010.75;5035627;28;20198;-78
2021/12/29 00:36:58;;;;;;;9.97;4.67;;;;;;;5.61;88.96;99031.78;5035820;28;21136;-78
2021/12/29 00:39:24;;;;;;;10.93;4.50;;;;;;;5.61;89.50;99039.72;5036446;28;20583;-78
2021/12/29 00:41:51;;;;;;;8.57;5.10;;;;;;;5.63;89.69;99050.16;5035636;28;20636;-78
2021/12/29 00:44:17;;;;;;;9.73;5.60;;;;;;;5.64;89.46;99057.13;5049639;28;20213;-79
2021/12/29 00:46:44;;;;;;;10.53;6.10;;;;;;;5.65;89.67;99058.84;5051396;28;20258;-79
2021/12/29 00:49:12;;;;;;;12.50;6.50;;;;;;;5.66;89.87;99061.38;5052247;28;20289;-79
2021/12/29 00:51:39;;;;;;;9.90;6.80;;;;;;;5.66;89.72;99071.09;5038704;28;20284;-79
2021/12/29 00:54:05;;;;;;;10.23;6.93;;;;;;;5.68;89.99;99085.03;5035525;28;20210;-78
2021/12/29 00:56:32;;;;;;;10.97;7.97;;;;;;;5.67;90.33;99072.78;5035665;28;20645;-79
2021/12/29 00:58:58;;;;;;;13.30;7.93;;;;;;;5.68;90.22;99080.59;5035629;28;20594;-79
2021/12/29 01:01:25;;;;;;;14.90;8.50;;;;;;;5.69;90.58;99086.75;5036380;28;20684;-79
2021/12/29 01:03:52;;;;;;;14.57;9.13;;;;;;;5.71;90.86;99092.75;5046381;28;20202;-79
2021/12/29 01:06:20;;;;;;;12.13;8.40;;;;;;;5.72;90.79;99105.88;5043510;28;20227;-79
2021/12/29 01:08:46;;;;;;;12.97;9.10;;;;;;;5.72;90.83;99095.31;5040180;28;20208;-79
2021/12/29 01:11:13;;;;;;;12.23;9.40;;;;;;;5.74;90.75;99095.16;5035802;28;20301;-78
2021/12/29 01:13:46;;;;;;;15.00;9.93;;;;;;;5.74;91.17;99093.38;5035648;28;20205;-79
2021/12/29 01:16:36;;;;;;;17.17;9.87;;;;;;;5.76;90.83;99088.00;5035992;28;20205;-79
2021/12/29 01:19:06;;;;;;;16.10;10.07;;;;;;;5.77;90.93;99095.81;5037719;28;20252;-79
2021/12/29 01:21:35;;;;;;;15.37;9.77;;;;;;;5.79;91.53;99103.63;5038735;28;20762;-79
2021/12/29 01:24:01;;;;;;;14.97;9.17;;;;;;;5.80;91.05;99108.81;5048777;28;20215;-79
2021/12/29 01:26:28;;;;;;;14.70;9.10;;;;;;;5.82;90.93;99106.91;5035064;28;20297;-79
2021/12/29 01:28:54;;;;;;;18.13;9.43;;;;;;;5.84;91.15;99101.53;5035974;28;20258;-78
2021/12/29 01:31:21;;;;;;;15.20;9.43;;;;;;;5.85;91.06;99111.16;5046437;28;20239;-79
2021/12/29 01:33:47;;;;;;;11.57;9.23;;;;;;;5.84;91.34;99118.22;5052756;28;20201;-78
2021/12/29 01:36:14;;;;;;;14.47;9.93;;;;;;;5.85;91.30;99119.06;5054710;28;20203;-79
2021/12/29 01:38:42;;;;;;;13.87;9.93;;;;;;;5.86;91.48;99118.13;5039355;28;20238;-79
2021/12/29 01:41:09;;;;;;;16.37;9.17;;;;;;;5.86;91.85;99131.34;5034806;28;20228;-78
2021/12/29 01:43:35;;;;;;;13.67;9.57;;;;;;;5.88;91.09;99130.31;5038534;28;20563;-79
2021/12/29 01:46:02;;;;;;;14.77;9.80;;;;;;;5.89;91.05;99123.25;5038494;28;20659;-79
2021/12/29 01:48:28;;;;;;;15.53;10.53;;;;;;;5.91;91.59;99130.09;5034803;28;20233;-78
2021/12/29 01:50:56;;;;;;;16.27;10.67;;;;;;;5.93;91.19;99127.34;5035131;28;20213;-79
2021/12/29 01:53:26;;;;;;;15.37;10.73;;;;;;;5.94;91.33;99118.47;5036137;28;20233;-79
2021/12/29 01:55:55;;;;;;;14.00;9.47;;;;;;;5.96;91.22;99119.22;5047027;28;20668;-79
2021/12/29 01:58:23;;;;;;;14.87;10.73;;;;;;;5.97;91.53;99130.63;5040628;28;20229;-78
2021/12/29 02:00:51;;;;;;;17.83;11.77;;;;;;;5.98;91.41;99138.44;5041179;28;20217;-79
2021/12/29 02:03:17;;;;;;;13.70;10.07;;;;;;;5.98;91.67;99134.97;5039077;28;20217;-78
2021/12/29 02:05:44;;;;;;;16.47;10.93;;;;;;;5.99;91.11;99131.38;5050331;28;20660;-78
2021/12/29 02:08:11;;;;;;;23.17;11.60;;;;;;;5.99;91.34;99132.22;5035101;28;20229;-78
2021/12/29 02:10:45;;;;;;;18.67;11.43;;;;;;;5.99;91.28;99132.22;5035490;28;20218;-82
2021/12/29 02:13:14;;;;;;;18.27;12.30;;;;;;;5.99;91.40;99144.59;5025074;28;20648;-81
2021/12/29 02:15:41;;;;;;;19.17;11.90;;;;;;;5.99;91.45;99148.06;5024692;28;20209;-81
2021/12/29 02:18:14;;;;;;;16.60;12.00;;;;;;;5.99;91.68;99158.66;5026852;28;20237;-81
2021/12/29 02:20:45;;;;;;;17.10;12.10;;;;;;;6.01;91.66;99162.03;5034839;28;20232;-81
2021/12/29 02:23:15;;;;;;;22.50;13.00;;;;;;;6.02;91.65;99171.66;5039538;28;20300;-82
2021/12/29 02:25:49;;;;;;;18.70;12.27;;;;;;;6.01;91.21;99172.59;5031364;28;20194;-81
2021/12/29 02:28:18;;;;;;;21.63;12.50;;;;;;;6.01;91.68;99175.25;5025292;28;20320;-82
2021/12/29 02:30:46;;;;;;;18.83;11.97;;;;;;;6.02;91.55;99184.88;5035041;28;20213;-83
2021/12/29 02:33:15;;;;;;;19.13;12.70;;;;;;;6.03;91.62;99183.06;5039155;28;20208;-82
2021/12/29 02:35:44;;;;;;;16.33;10.67;;;;;;;6.03;91.61;99189.19;5035681;28;20627;-82
2021/12/29 02:38:19;;;;;;;16.83;11.57;;;;;;;6.05;91.59;99194.38;5033751;28;20241;-82
2021/12/29 02:40:49;;;;;;;16.10;11.73;;;;;;;6.06;91.84;99199.56;5035110;28;20219;-82
2021/12/29 02:43:19;;;;;;;18.97;11.67;;;;;;;6.07;91.44;99208.34;5032883;28;20202;-82
2021/12/29 02:45:49;;;;;;;18.17;11.67;;;;;;;6.08;91.56;99210.88;5033598;28;20292;-82
2021/12/29 02:48:16;;;;;;;17.77;11.53;;;;;;;6.09;91.81;99209.91;5036286;28;20306;-81
2021/12/29 02:50:44;;;;;;;16.87;11.53;;;;;;;6.11;91.91;99217.75;5043411;28;20201;-82
2021/12/29 02:53:12;;;;;;;17.33;11.13;;;;;;;6.12;91.57;99219.44;5043341;28;20206;-82
2021/12/29 02:55:38;;;;;;;16.50;11.17;;;;;;;6.12;92.32;99222.91;5049341;28;20218;-81
2021/12/29 02:58:05;;;;;;;16.40;11.83;;;;;;;6.15;92.01;99228.00;5037518;28;20255;-82
2021/12/29 03:00:32;;;;;;;17.63;10.80;;;;;;;6.15;91.81;99241.22;5037542;28;20591;-81
2021/12/29 03:02:58;;;;;;;18.40;11.37;;;;;;;6.16;91.85;99242.91;5050633;28;20217;-82
2021/12/29 03:05:26;;;;;;;17.37;10.90;;;;;;;6.17;92.09;99236.69;5039506;28;20214;-82
2021/12/29 03:07:55;;;;;;;16.13;11.40;;;;;;;6.19;92.12;99239.22;5041589;28;20237;-81
2021/12/29 03:10:21;;;;;;;17.63;11.20;;;;;;;6.19;92.13;99232.16;5038079;28;20203;-82
2021/12/29 03:12:48;;;;;;;17.53;11.03;;;;;;;6.21;92.01;99237.31;5026302;28;20214;-82
2021/12/29 03:15:14;;;;;;;20.60;11.90;;;;;;;6.21;92.11;99246.09;5038504;28;20301;-82
2021/12/29 03:17:41;;;;;;;16.90;11.83;;;;;;;6.21;92.27;99242.63;5041788;28;20239;-82
2021/12/29 03:20:09;;;;;;;19.83;12.40;;;;;;;6.21;92.27;99247.91;5046029;28;20233;-82
2021/12/29 03:22:36;;;;;;;20.00;12.53;;;;;;;6.22;92.21;99247.81;5039765;28;20210;-82
2021/12/29 03:25:05;;;;;;;19.13;12.63;;;;;;;6.23;92.35;99249.50;5040838;28;20199;-82
2021/12/29 03:27:31;;;;;;;21.07;12.20;;;;;;;6.24;92.18;99245.91;5054045;28;20225;-82
2021/12/29 03:29:58;;;;;;;18.47;12.47;;;;;;;6.26;92.62;99243.16;5046049;28;20205;-82
2021/12/29 03:32:38;;;;;;;21.23;13.77;;;;;;;6.27;92.26;99247.47;5040288;28;20228;-82
2021/12/29 03:35:05;;;;;;;20.13;14.13;;;;;;;6.27;92.55;99252.75;5038600;28;20633;-82
2021/12/29 03:37:32;;;;;;;22.10;13.27;;;;;;;6.30;92.74;99249.06;5036701;28;20614;-82
2021/12/29 03:39:59;;;;;;;22.13;12.53;;;;;;;6.29;92.68;99248.22;5042932;28;20602;-83
2021/12/29 03:42:26;;;;;;;22.57;12.50;;;;;;;6.31;93.04;99250.75;5036749;28;20670;-82
2021/12/29 03:44:53;;;;;;;21.10;12.83;;;;;;;6.29;92.95;99256.16;5036251;28;20209;-81
2021/12/29 03:47:20;;;;;;;27.97;13.67;;;;;;;6.30;93.05;99257.84;5039880;28;20317;-82
2021/12/29 03:49:46;;;;;;;24.03;13.70;;;;;;;6.28;93.42;99267.66;5043360;28;20210;-82
2021/12/29 03:52:13;;;;;;;21.50;12.37;;;;;;;6.26;93.37;99267.81;5045210;28;20205;-81
2021/12/29 03:54:42;;;;;;;19.37;12.70;;;;;;;6.26;93.58;99280.19;5036197;28;20598;-82
2021/12/29 03:57:08;;;;;;;19.17;12.37;;;;;;;6.24;93.56;99288.22;5048775;28;20236;-81
2021/12/29 03:59:36;;;;;;;21.70;12.57;;;;;;;6.24;93.41;99288.22;5042515;28;20240;-82
2021/12/29 04:02:03;;;;;;;19.37;11.30;;;;;;;6.26;93.33;99288.09;5037438;28;20205;-81
2021/12/29 04:04:30;;;;;;;16.67;10.97;;;;;;;6.25;93.38;99281.13;5048368;28;20206;-81
2021/12/29 04:06:57;;;;;;;19.60;11.43;;;;;;;6.24;93.61;99290.84;5036189;28;20239;-82
2021/12/29 04:09:23;;;;;;;17.13;10.73;;;;;;;6.23;94.08;99294.44;5054583;28;20213;-82
2021/12/29 04:11:51;;;;;;;14.20;10.07;;;;;;;6.23;93.94;99294.44;5056164;28;20742;-82
2021/12/29 04:14:19;;;;;;;18.03;9.73;;;;;;;6.24;94.42;99296.13;5055696;28;20296;-82
2021/12/29 04:16:48;;;;;;;14.07;9.27;;;;;;;6.26;94.52;99303.97;5044536;28;20307;-81
2021/12/29 04:19:17;;;;;;;15.60;9.33;;;;;;;6.27;94.60;99303.84;5038827;28;20241;-82
2021/12/29 04:21:46;;;;;;;13.30;8.63;;;;;;;6.27;94.42;99305.63;5055228;28;20237;-80
2021/12/29 04:24:14;;;;;;;12.60;8.40;;;;;;;6.30;94.66;99301.94;5047818;28;20214;-80
2021/12/29 04:26:41;;;;;;;11.10;7.70;;;;;;;6.30;94.99;99315.16;5042535;28;20229;-81
2021/12/29 04:29:10;;;;;;;12.33;8.27;;;;;;;6.31;95.14;99317.72;5040961;28;20214;-81
2021/12/29 04:31:36;;;;;;;12.33;8.87;;;;;;;6.31;94.67;99323.00;5049291;28;20206;-81
2021/12/29 04:34:04;;;;;;;13.47;9.07;;;;;;;6.31;94.99;99324.78;5047150;28;20571;-82
2021/12/29 04:36:31;;;;;;;13.87;8.93;;;;;;;6.32;95.36;99323.84;5049922;28;20202;-82
2021/12/29 04:38:59;;;;;;;13.47;8.90;;;;;;;6.33;95.35;99330.81;5037989;28;20218;-81
2021/12/29 04:41:26;;;;;;;11.50;8.57;;;;;;;6.34;95.05;99341.31;5036034;28;20641;-82
2021/12/29 04:43:52;;;;;;;13.20;8.77;;;;;;;6.36;95.20;99335.91;5047890;28;20206;-82
2021/12/29 04:46:27;;;;;;;14.43;8.97;;;;;;;6.36;95.80;99342.06;5034987;28;20217;-82
2021/12/29 04:48:59;;;;;;;10.60;7.73;;;;;;;6.38;95.70;99347.25;5026664;28;20577;-81
2021/12/29 04:51:34;;;;;;;14.07;8.40;;;;;;;6.38;95.98;99352.53;5050763;28;20194;-81
2021/12/29 04:54:01;;;;;;;12.57;9.03;;;;;;;6.39;96.14;99351.59;5048503;28;20252;-81
2021/12/29 04:56:28;;;;;;;11.83;8.47;;;;;;;6.41;96.36;99354.97;5046356;28;20215;-81
2021/12/29 04:58:54;;;;;;;13.00;9.07;;;;;;;6.42;96.04;99361.97;5040659;28;20210;-81
2021/12/29 05:01:21;;;;;;;13.57;8.73;;;;;;;6.43;96.06;99375.09;5046425;28;20246;-82
2021/12/29 05:03:47;;;;;;;13.03;8.67;;;;;;;6.44;96.50;99373.28;5037461;28;20205;-82
2021/12/29 05:08:59;;;;;;;13.30;8.87;;;;;;;6.45;96.36;99382.91;4981526;28;20210;-82
2021/12/29 05:11:25;;;;;;;12.17;8.77;;;;;;;6.45;96.29;99389.03;5035892;28;20202;-82
2021/12/29 05:13:52;;;;;;;13.67;8.67;;;;;;;6.44;96.90;99394.44;5035269;28;20211;-82
2021/12/29 05:16:18;;;;;;;11.57;8.17;;;;;;;6.44;96.24;99392.66;5046844;28;20218;-81
2021/12/29 05:18:45;;;;;;;13.73;8.00;;;;;;;6.45;96.87;99396.13;5034328;28;20305;-82
2021/12/29 05:21:12;;;;;;;13.57;8.60;;;;;;;6.43;96.94;99406.81;5032796;28;20845;-80
2021/12/29 05:23:39;;;;;;;16.20;8.70;;;;;;;6.43;96.52;99400.69;5044180;28;20593;-82
2021/12/29 05:26:07;;;;;;;13.60;9.27;;;;;;;6.42;96.84;99406.91;5036954;28;20217;-81
2021/12/29 05:28:34;;;;;;;13.67;9.13;;;;;;;6.42;96.94;99409.56;5042929;28;20758;-82
2021/12/29 05:31:00;;;;;;;15.27;9.57;;;;;;;6.42;96.82;99412.22;5053763;28;20206;-82
2021/12/29 05:33:27;;;;;;;16.33;9.63;;;;;;;6.41;96.55;99421.94;5034763;28;20226;-82
2021/12/29 05:35:54;;;;;;;14.23;9.03;;;;;;;6.41;96.91;99426.38;5034472;28;20658;-81
2021/12/29 05:38:20;;;;;;;12.83;9.00;;;;;;;6.41;96.58;99434.31;5053417;22;20234;-72
2021/12/29 05:40:48;;;;;;;15.53;9.10;;;;;;;6.40;96.70;99432.63;5023761;28;20238;-73
2021/12/29 05:43:16;;;;;;;13.87;8.27;;;;;;;6.39;96.54;99434.41;5027168;28;20316;-72
2021/12/29 05:45:43;;;;;;;13.17;8.17;;;;;;;6.38;96.83;99430.06;5029470;28;20202;-73
2021/12/29 05:48:09;;;;;;;14.57;9.00;;;;;;;6.38;96.69;99439.78;5020904;28;20206;-72
2021/12/29 05:50:36;;;;;;;13.30;8.80;;;;;;;6.36;96.79;99439.03;5042665;22;20370;-71
2021/12/29 05:53:03;;;;;;;12.90;8.10;;;;;;;6.35;96.64;99437.34;5022325;28;20585;-70
2021/12/29 05:55:30;;;;;;;13.03;7.57;;;;;;;6.34;96.98;99436.50;5025320;28;20590;-71
2021/12/29 05:57:57;;;;;;;12.10;7.43;;;;;;;6.35;96.76;99455.84;5027057;28;20202;-70
2021/12/29 06:00:27;;;;;;;10.87;7.30;;;;;;;6.34;96.96;99448.88;5027655;28;20244;-71
2021/12/29 06:02:55;;;;;;;10.67;6.70;;;;;;;6.34;96.95;99460.28;5025338;28;20542;-71
2021/12/29 06:05:23;;;;;;;13.30;7.00;;;;;;;6.34;97.37;99459.44;5025943;28;20223;-71
2021/12/29 06:07:49;;;;;;;10.70;6.73;;;;;;;6.34;97.01;99454.16;5028850;28;20665;-71
2021/12/29 06:10:16;;;;;;;9.07;6.37;;;;;;;6.36;97.11;99461.03;5029899;28;20214;-71
2021/12/29 06:12:43;;;;;;;11.97;6.30;;;;;;;6.35;96.83;99467.28;5028894;28;20209;-71
2021/12/29 06:15:10;;;;;;;9.97;6.43;;;;;;;6.35;96.99;99467.28;5019143;28;20217;-71
2021/12/29 06:17:38;;;;;;;10.77;6.73;;;;;;;6.35;97.10;99469.94;5027632;28;20211;-73
2021/12/29 06:20:08;;;;;;;9.73;6.00;;;;;;;6.36;97.15;99478.72;5027847;28;20202;-71
2021/12/29 06:22:35;;;;;;;8.03;5.70;;;;;;;6.37;97.28;99475.97;5033159;28;20229;-71
2021/12/29 06:25:03;;;;;;;9.90;6.43;;;;;;;6.38;97.20;99474.16;5021528;28;20676;-71
2021/12/29 06:27:31;;;;;;;7.43;5.50;;;;;;;6.39;97.59;99475.88;5022494;28;20202;-71
2021/12/29 06:29:58;;;;;;;14.23;6.67;;;;;;;6.39;97.41;99478.50;5020141;28;20740;-71
2021/12/29 06:32:25;;;;;;;10.20;6.13;;;;;;;6.38;97.50;99487.41;5018675;28;20225;-71
2021/12/29 06:34:54;;;;;;;8.10;5.40;;;;;;;6.39;97.15;99494.38;5018369;28;20231;-71
2021/12/29 06:37:21;;;;;;;8.07;5.50;;;;;;;6.38;97.56;99498.81;5027381;28;20210;-70
2021/12/29 06:39:48;;;;;;;7.27;4.77;;;;;;;6.39;97.30;99504.97;5027755;28;20698;-71
2021/12/29 06:42:15;;;;;;;7.87;5.27;;;;;;;6.39;97.12;99508.47;5029064;28;20230;-71
2021/12/29 06:44:43;;;;;;;7.80;5.43;;;;;;;6.39;97.81;99512.91;5028543;28;20210;-71
2021/12/29 06:47:09;;;;;;;7.07;4.70;;;;;;;6.40;97.43;99517.25;5028906;28;20202;-71
2021/12/29 06:49:37;;;;;;;7.47;4.93;;;;;;;6.40;97.46;99517.25;5029724;28;20587;-71
2021/12/29 06:52:06;;;;;;;6.97;4.67;;;;;;;6.40;97.71;99517.25;5035815;28;20240;-71
2021/12/29 06:54:33;;;;;;;9.13;5.37;;;;;;;6.40;97.82;99541.03;5029430;28;20206;-71
2021/12/29 06:57:00;;;;;;;7.30;4.60;;;;;;;6.40;97.93;99543.69;5027520;28;20212;-71
2021/12/29 06:59:27;;;;;;;7.50;5.37;;;;;;;6.40;97.74;99560.41;5025482;28;20579;-71
2021/12/29 07:01:54;;;;;;;9.53;5.03;;;;;;;6.40;97.75;99572.78;5028264;28;20300;-73
2021/12/29 07:04:20;;;;;;;7.47;5.50;;;;;;;6.40;97.38;99578.91;5026246;28;20225;-71
2021/12/29 07:06:47;;;;;;;8.97;5.37;;;;;;;6.40;97.95;99580.72;5026138;28;20213;-71
2021/12/29 07:09:15;;;;;;;8.67;5.53;;;;;;;6.39;97.33;99587.78;5026146;28;20594;-72
2021/12/29 07:11:41;;;;;;;7.47;5.27;;;;;;;6.42;97.73;99598.19;5023106;28;20214;-71
2021/12/29 07:14:09;;;;;;;9.30;4.83;;;;;;;6.43;97.65;99599.03;5028970;28;20305;-73
2021/12/29 07:16:36;;;;;;;7.20;4.80;;;;;;;6.44;97.64;99608.66;5029401;28;20304;-71
2021/12/29 07:19:03;;;;;;;8.57;5.03;;;;;;;6.45;97.71;99611.19;5028510;28;20210;-71
2021/12/29 07:21:30;;;;;;;6.70;4.60;;;;;;;6.44;97.98;99613.97;5028371;28;20230;-71
2021/12/29 07:23:57;;;;;;;7.83;5.00;;;;;;;6.46;97.73;99609.41;5026023;28;20213;-71
2021/12/29 07:26:25;;;;;;;7.40;5.20;;;;;;;6.47;97.73;99614.59;5026579;28;20563;-71
2021/12/29 07:28:53;;;;;;;6.60;4.87;;;;;;;6.48;98.12;99620.72;5027006;28;20199;-71
2021/12/29 07:31:21;;;;;;;8.27;4.90;;;;;;;6.47;97.63;99613.75;5025106;28;20218;-70
2021/12/29 07:33:48;;;;;;;7.10;4.80;;;;;;;6.48;97.99;99616.28;5025096;28;20214;-73
2021/12/29 07:36:14;;;;;;;8.17;5.30;;;;;;;6.48;97.92;99621.59;5027064;28;20206;-72
2021/12/29 07:38:41;;;;;;;6.27;4.43;;;;;;;6.50;97.71;99622.34;5028870;28;20208;-71
2021/12/29 07:41:09;;;;;;;6.60;4.67;;;;;;;6.52;98.05;99623.09;5023400;28;20234;-73
2021/12/29 07:43:38;;;;;;;5.90;4.47;;;;;;;6.52;98.14;99636.31;5029110;28;20666;-71
2021/12/29 07:46:05;;;;;;;6.33;4.87;;;;;;;6.53;97.51;99634.53;5028076;28;20205;-72
2021/12/29 07:48:32;;;;;;;6.40;4.70;;;;;;;6.54;97.96;99638.88;5029975;28;20197;-70
2021/12/29 07:51:00;;;;;;;7.27;4.90;;;;;;;6.53;98.25;99648.59;5027852;28;20742;-71
2021/12/29 07:53:27;;;;;;;9.60;5.40;;;;;;;6.53;98.08;99637.16;5029198;28;20199;-70
2021/12/29 07:55:54;;;;;;;7.23;4.30;;;;;;;6.53;97.59;99640.66;5026960;28;20194;-70
2021/12/29 07:58:22;;;;;;;7.33;4.80;;;;;;;6.53;98.04;99645.09;5027238;28;20213;-71
2021/12/29 08:00:51;;;;;;;7.23;4.63;;;;;;;6.53;97.95;99650.41;5029707;28;20615;-71
2021/12/29 08:03:17;;;;;;;6.57;4.53;;;;;;;6.54;98.53;99652.09;5028069;28;20218;-72
2021/12/29 08:05:45;;;;;;;5.83;4.37;;;;;;;6.54;98.31;99666.19;5029220;28;20209;-71
2021/12/29 08:08:11;;;;;;;6.73;4.13;;;;;;;6.56;98.07;99671.38;5028283;28;20701;-70
2021/12/29 08:10:39;;;;;;;6.70;4.73;;;;;;;6.56;98.62;99671.38;5027463;28;20238;-72
2021/12/29 08:13:07;;;;;;;6.13;4.13;;;;;;;6.57;97.67;99673.06;5029451;28;20210;-71
2021/12/29 08:15:35;;;;;;;6.30;3.90;;;;;;;6.58;98.24;99666.84;5026516;28;20583;-71
2021/12/29 08:18:05;;;;;;;5.10;3.67;;;;;;;6.59;98.39;99673.84;5027937;28;20213;-71
2021/12/29 08:20:32;;;;;;;5.37;3.60;;;;;;;6.60;98.59;99667.59;5033497;28;20777;-71
2021/12/29 08:22:59;;;;;;;5.23;3.20;;;;;;;6.62;98.80;99671.00;5035247;28;20734;-72
2021/12/29 08:25:25;;;;;;;5.20;3.23;;;;;;;6.63;98.24;99677.97;5036089;28;21692;-70
2021/12/29 08:27:52;;;;;;;4.30;2.77;;;;;;;6.63;98.58;99683.25;5028685;28;20222;-70
2021/12/29 08:30:19;;;;;;;3.60;2.83;;;;;;;6.65;98.67;99691.94;5030454;28;20217;-70
2021/12/29 08:32:45;;;;;;;5.00;3.13;;;;;;;6.67;99.01;99698.00;5038212;28;20202;-70
2021/12/29 08:35:13;;;;;;;2.93;2.30;;;;;;;6.68;98.96;99690.91;5016418;28;20230;-70
2021/12/29 08:37:40;;;;;;;4.40;3.17;;;;;;;6.69;98.71;99704.03;5027756;28;20216;-71
2021/12/29 08:40:10;;;;;;;4.93;2.60;;;;;;;6.70;99.06;99705.75;5018459;28;20210;-71
2021/12/29 08:42:37;;;;;;;5.97;3.33;;;;;;;6.72;99.05;99708.31;5021891;28;20249;-69
2021/12/29 08:45:04;;;;;;;4.27;3.00;;;;;;;6.73;98.91;99705.56;5039015;28;20206;-70
2021/12/29 08:47:30;;;;;;;6.17;3.43;;;;;;;6.75;99.13;99708.97;5032922;28;20194;-71
2021/12/29 08:49:57;;;;;;;5.27;3.30;;;;;;;6.75;99.21;99703.69;5025241;28;20206;-71
2021/12/29 08:52:25;;;;;;;4.47;2.60;;;;;;;6.78;99.11;99706.13;5025561;28;20741;-70
2021/12/29 08:54:51;;;;;;;2.90;2.40;;;;;;;6.79;99.64;99693.75;5027821;28;20318;-69
2021/12/29 08:57:18;;;;;;;3.23;2.60;;;;;;;6.80;99.36;99709.53;5029134;28;20206;-71
2021/12/29 08:59:44;;;;;;;3.40;2.47;;;;;;;6.81;99.12;99708.56;5028915;28;20217;-70
2021/12/29 09:02:11;;;;;;;3.83;2.47;;;;;;;6.83;99.65;99706.66;5016911;28;20237;-69
2021/12/29 09:04:38;;;;;;;3.10;2.37;;;;;;;6.86;99.18;99708.28;5031183;28;20588;-70
2021/12/29 09:07:05;;;;;;;4.10;2.20;;;;;;;6.89;98.98;99713.38;5026348;28;20217;-70
2021/12/29 09:09:32;;;;;;;3.27;2.40;;;;;;;6.92;100.00;99711.41;5028633;28;20210;-69
2021/12/29 09:11:59;;;;;;;3.60;3.00;;;;;;;6.93;98.85;99718.41;5026702;28;20226;-70
2021/12/29 09:14:26;;;;;;;3.13;2.80;;;;;;;6.95;99.09;99724.44;5030154;28;20202;-70
2021/12/29 09:16:52;;;;;;;4.70;2.70;;;;;;;6.97;99.55;99729.66;5028218;28;20285;-70
2021/12/29 09:19:19;;;;;;;4.67;3.10;;;;;;;7.00;99.15;99729.44;5028938;28;20207;-68
2021/12/29 09:21:47;;;;;;;3.40;2.83;;;;;;;7.02;99.30;99742.56;5029621;28;20226;-71
2021/12/29 09:24:16;;;;;;;5.03;3.03;;;;;;;7.02;99.54;99727.53;5028058;28;20682;-72
2021/12/29 09:26:44;;;;;;;4.30;2.80;;;;;;;7.05;99.71;99731.78;5032928;28;20574;-70
2021/12/29 09:29:10;;;;;;;4.50;2.90;;;;;;;7.06;99.21;99746.72;5027273;28;20249;-72
2021/12/29 09:31:37;;;;;;;4.57;3.43;;;;;;;7.07;99.71;99745.78;5028935;28;20597;-69
2021/12/29 09:34:04;;;;;;;4.30;2.67;;;;;;;7.08;99.03;99743.03;5029912;28;20214;-72
2021/12/29 09:36:30;;;;;;;4.17;3.13;;;;;;;7.11;99.58;99742.00;5029833;28;20213;-72
2021/12/29 09:38:57;;;;;;;3.37;2.53;;;;;;;7.12;99.32;99747.22;5030005;28;20203;-70
2021/12/29 09:41:23;;;;;;;4.17;3.20;;;;;;;7.14;99.65;99760.34;5026449;28;20234;-72
2021/12/29 09:43:51;;;;;;;5.60;3.83;;;;;;;7.16;99.58;99764.59;5027589;28;20202;-71
2021/12/29 09:46:18;;;;;;;4.10;3.43;;;;;;;7.18;99.93;99765.34;5029760;28;20214;-70
2021/12/29 09:48:47;;;;;;;6.23;4.60;;;;;;;7.20;99.77;99768.75;5028828;28;20203;-69
2021/12/29 09:51:15;;;;;;;5.60;4.30;;;;;;;7.21;99.92;99769.59;5027730;28;20234;-71
2021/12/29 09:53:42;;;;;;;5.37;4.70;;;;;;;7.23;99.14;99760.59;5026153;28;20198;-70
2021/12/29 09:56:09;;;;;;;5.43;4.57;;;;;;;7.26;99.19;99762.22;5026863;28;20206;-69
2021/12/29 09:58:36;;;;;;;6.83;4.30;;;;;;;7.29;99.27;99772.63;5025900;28;20210;-68
2021/12/29 10:01:05;;;;;;;9.07;4.53;;;;;;;7.30;99.67;99766.38;5022895;28;20222;-67
2021/12/29 10:03:33;;;;;;;5.20;4.00;;;;;;;7.33;99.61;99774.13;5027652;28;20226;-72
2021/12/29 10:06:02;;;;;;;6.70;3.57;;;;;;;7.36;99.60;99765.09;5030751;28;20206;-69
2021/12/29 10:08:32;;;;;;;4.43;3.70;;;;;;;7.37;99.54;99775.59;5029816;28;20694;-70
2021/12/29 10:11:01;;;;;;;5.37;3.83;;;;;;;7.40;99.43;99774.56;5028413;28;20234;-68
2021/12/29 10:13:29;;;;;;;4.20;3.17;;;;;;;7.44;98.80;99776.06;5030288;28;20229;-69
2021/12/29 10:16:01;;;;;;;4.20;3.20;;;;;;;7.46;98.77;99785.63;5025501;28;20206;-68
2021/12/29 10:18:31;;;;;;;4.60;3.40;;;;;;;7.48;98.47;99775.78;5025402;28;20207;-69
2021/12/29 10:21:00;;;;;;;4.50;3.80;;;;;;;7.51;99.09;99788.84;5029279;28;20230;-70
2021/12/29 10:23:30;;;;;;;4.60;3.73;;;;;;;7.54;99.17;99780.66;5027414;28;20612;-70
2021/12/29 10:26:05;;;;;;;3.57;3.27;;;;;;;7.58;98.34;99789.28;5016912;28;20292;-71
2021/12/29 10:28:33;;;;;;;4.77;3.43;;;;;;;7.61;99.16;99803.19;5017064;28;20203;-70
2021/12/29 10:31:06;;;;;;;4.80;3.17;;;;;;;7.63;98.44;99805.75;5020932;28;20260;-68
2021/12/29 10:33:38;;;;;;;3.53;2.80;;;;;;;7.66;98.63;99798.44;5024992;28;20194;-68
2021/12/29 10:36:22;;;;;;;6.00;3.03;;;;;;;7.69;98.62;99801.84;5033574;28;20206;-69
2021/12/29 10:38:55;;;;;;;5.33;2.70;;;;;;;7.72;98.56;99801.63;5025161;28;20202;-68
2021/12/29 10:41:21;;;;;;;2.83;2.10;;;;;;;7.74;98.04;99805.88;5025607;28;20225;-70
2021/12/29 10:43:53;;;;;;;3.70;2.67;;;;;;;7.76;97.71;99809.28;5021940;28;20680;-70
2021/12/29 10:46:20;;;;;;;3.27;2.33;;;;;;;7.80;98.25;99809.94;5019108;28;20210;-67
2021/12/29 10:48:52;;;;;;;2.50;1.90;;;;;;;7.81;97.78;99816.94;5024900;28;20207;-69
2021/12/29 10:51:20;;;;;;;2.20;2.00;;;;;;;7.84;98.50;99822.06;5030824;28;20317;-71
2021/12/29 10:53:47;;;;;;;2.00;1.80;;;;;;;7.85;97.51;99819.31;5036066;28;20202;-72
2021/12/29 10:56:23;;;;;;;2.73;1.57;;;;;;;7.88;97.33;99818.25;5032579;28;20220;-71
2021/12/29 10:58:52;;;;;;;2.13;1.60;;;;;;;7.90;97.86;99824.28;5037010;28;20203;-71
2021/12/29 11:01:22;;;;;;;3.73;1.93;;;;;;;7.91;97.67;99829.50;5030328;28;20238;-72
2021/12/29 11:03:53;;;;;;;1.87;1.50;;;;;;;7.94;97.74;99836.41;5022296;28;20616;-71
2021/12/29 11:06:24;;;;;;;1.50;1.40;;;;;;;7.94;97.42;99837.25;5009773;28;20217;-71
2021/12/29 11:08:53;;;;;;;2.30;1.67;;;;;;;7.96;96.94;99837.16;5017507;28;20198;-69
2021/12/29 11:11:25;;;;;;;3.40;2.50;;;;;;;7.96;97.24;99831.84;5024384;28;20232;-71
2021/12/29 11:13:53;;;;;;;12.67;9.80;;;;;;;7.97;96.58;99833.56;5034773;28;20693;-71
2021/12/29 11:16:21;;;;;;;5.80;4.27;;;;;;;7.98;96.37;99827.31;5028358;28;20206;-71
2021/12/29 11:18:51;;;;;;;6.10;4.77;;;;;;;8.00;97.04;99825.41;5031446;28;20647;-71
2021/12/29 11:21:25;;;;;;;5.13;3.93;;;;;;;8.02;96.42;99820.84;5029621;28;20233;-71
2021/12/29 11:23:53;;;;;;;4.70;3.87;;;;;;;8.03;96.01;99809.28;5029537;28;20734;-71
2021/12/29 11:26:29;;;;;;;3.20;2.50;;;;;;;8.05;96.34;99810.03;5031973;28;20206;-71
2021/12/29 11:29:04;;;;;;;5.83;3.97;;;;;;;8.05;95.77;99815.34;5027110;28;20215;-71
2021/12/29 11:31:34;;;;;;;3.80;3.10;;;;;;;8.08;96.48;99806.31;5028883;28;20275;-71
2021/12/29 11:34:18;;;;;;;4.27;3.73;;;;;;;8.10;96.30;99821.19;5031813;28;20203;-71
2021/12/29 11:36:45;;;;;;;5.37;4.20;;;;;;;8.11;96.17;99803.47;5028366;28;20212;-70
2021/12/29 11:39:12;;;;;;;6.97;4.67;;;;;;;8.14;95.91;99806.75;5030762;28;20758;-70
2021/12/29 11:41:42;;;;;;;5.73;4.83;;;;;;;8.17;95.70;99811.03;5031390;28;20230;-70